sensor_id;sensor_type;location;lat;lon;timestamp;P1;durP1;ratioP1;P2;durP2;ratioP2
7027;SDS011;3555;53.248;10.336;2023-11-18T00:01:31;8.50;;;5.93;;
7027;SDS011;3555;53.248;10.336;2023-11-18T00:03:58;6.77;;;5.93;;
7027;SDS011;3555;53.248;10.336;2023-11-18T00:06:25;9.10;;;5.93;;
7027;SDS011;3555;53.248;10.336;2023-11-18T00:08:53;6.73;;;5.83;;
7027;SDS011;3555;53.248;10.336;2023-11-18T00:11:20;7.30;;;5.47;;
7027;SDS011;3555;53.248;10.336;2023-11-18T00:13:48;7.73;;;5.17;;
7027;SDS011;3555;53.248;10.336;2023-11-18T00:16:15;7.27;;;5.37;;
7027;SDS011;3555;53.248;10.336;2023-11-18T00:18:42;6.40;;;5.43;;
7027;SDS011;3555;53.248;10.336;2023-11-18T00:21:09;6.73;;;5.30;;
7027;SDS011;3555;53.248;10.336;2023-11-18T00:23:36;5.93;;;4.80;;
7027;SDS011;3555;53.248;10.336;2023-11-18T00:26:04;6.47;;;5.23;;
7027;SDS011;3555;53.248;10.336;2023-11-18T00:28:33;6.63;;;5.50;;
7027;SDS011;3555;53.248;10.336;2023-11-18T00:31:01;7.23;;;5.70;;
7027;SDS011;3555;53.248;10.336;2023-11-18T00:33:29;7.37;;;5.87;;
7027;SDS011;3555;53.248;10.336;2023-11-18T00:35:56;7.33;;;5.47;;
7027;SDS011;3555;53.248;10.336;2023-11-18T00:38:24;9.13;;;6.37;;
7027;SDS011;3555;53.248;10.336;2023-11-18T00:40:51;8.20;;;6.23;;
7027;SDS011;3555;53.248;10.336;2023-11-18T00:43:18;8.93;;;5.20;;
7027;SDS011;3555;53.248;10.336;2023-11-18T00:45:45;6.50;;;5.63;;
7027;SDS011;3555;53.248;10.336;2023-11-18T00:48:13;7.40;;;5.33;;
7027;SDS011;3555;53.248;10.336;2023-11-18T00:50:40;8.13;;;5.63;;
7027;SDS011;3555;53.248;10.336;2023-11-18T00:53:07;6.70;;;5.20;;
7027;SDS011;3555;53.248;10.336;2023-11-18T00:55:35;7.60;;;5.40;;
7027;SDS011;3555;53.248;10.336;2023-11-18T00:58:02;8.17;;;5.17;;
7027;SDS011;3555;53.248;10.336;2023-11-18T01:00:30;6.73;;;5.17;;
7027;SDS011;3555;53.248;10.336;2023-11-18T01:02:57;6.07;;;5.00;;
7027;SDS011;3555;53.248;10.336;2023-11-18T01:05:25;6.07;;;5.03;;
7027;SDS011;3555;53.248;10.336;2023-11-18T01:07:52;7.87;;;5.27;;
7027;SDS011;3555;53.248;10.336;2023-11-18T01:10:19;6.17;;;5.10;;
7027;SDS011;3555;53.248;10.336;2023-11-18T01:12:46;7.07;;;5.20;;
7027;SDS011;3555;53.248;10.336;2023-11-18T01:15:13;7.20;;;5.60;;
7027;SDS011;3555;53.248;10.336;2023-11-18T01:17:40;6.57;;;5.13;;
7027;SDS011;3555;53.248;10.336;2023-11-18T01:20:07;6.37;;;5.13;;
7027;SDS011;3555;53.248;10.336;2023-11-18T01:22:37;6.20;;;5.23;;
7027;SDS011;3555;53.248;10.336;2023-11-18T01:25:04;6.57;;;5.20;;
7027;SDS011;3555;53.248;10.336;2023-11-18T01:27:33;7.33;;;5.23;;
7027;SDS011;3555;53.248;10.336;2023-11-18T01:30:01;7.80;;;4.90;;
7027;SDS011;3555;53.248;10.336;2023-11-18T01:32:29;7.07;;;5.10;;
7027;SDS011;3555;53.248;10.336;2023-11-18T01:34:56;6.27;;;4.87;;
7027;SDS011;3555;53.248;10.336;2023-11-18T01:37:23;8.40;;;5.63;;
7027;SDS011;3555;53.248;10.336;2023-11-18T01:39:51;7.00;;;5.53;;
7027;SDS011;3555;53.248;10.336;2023-11-18T01:42:18;6.97;;;5.53;;
7027;SDS011;3555;53.248;10.336;2023-11-18T01:44:46;5.37;;;4.70;;
7027;SDS011;3555;53.248;10.336;2023-11-18T01:47:13;6.50;;;5.17;;
7027;SDS011;3555;53.248;10.336;2023-11-18T01:49:41;6.43;;;5.30;;
7027;SDS011;3555;53.248;10.336;2023-11-18T01:52:08;6.70;;;5.23;;
7027;SDS011;3555;53.248;10.336;2023-11-18T01:54:37;7.43;;;4.97;;
7027;SDS011;3555;53.248;10.336;2023-11-18T01:57:06;5.87;;;5.20;;
7027;SDS011;3555;53.248;10.336;2023-11-18T01:59:34;7.07;;;5.50;;
7027;SDS011;3555;53.248;10.336;2023-11-18T02:02:03;7.37;;;5.60;;
7027;SDS011;3555;53.248;10.336;2023-11-18T02:04:30;8.97;;;5.87;;
7027;SDS011;3555;53.248;10.336;2023-11-18T02:06:57;7.27;;;5.40;;
7027;SDS011;3555;53.248;10.336;2023-11-18T02:09:28;7.10;;;5.57;;
7027;SDS011;3555;53.248;10.336;2023-11-18T02:11:56;6.80;;;5.53;;
7027;SDS011;3555;53.248;10.336;2023-11-18T02:14:31;6.50;;;5.43;;
7027;SDS011;3555;53.248;10.336;2023-11-18T02:17:02;6.63;;;5.50;;
7027;SDS011;3555;53.248;10.336;2023-11-18T02:19:30;6.43;;;5.30;;
7027;SDS011;3555;53.248;10.336;2023-11-18T02:21:59;8.10;;;5.07;;
7027;SDS011;3555;53.248;10.336;2023-11-18T02:24:27;7.20;;;5.63;;
7027;SDS011;3555;53.248;10.336;2023-11-18T02:26:57;7.20;;;5.60;;
7027;SDS011;3555;53.248;10.336;2023-11-18T02:29:25;5.80;;;4.40;;
7027;SDS011;3555;53.248;10.336;2023-11-18T02:31:56;7.67;;;5.20;;
7027;SDS011;3555;53.248;10.336;2023-11-18T02:34:30;7.37;;;5.07;;
7027;SDS011;3555;53.248;10.336;2023-11-18T02:37:00;6.53;;;4.87;;
7027;SDS011;3555;53.248;10.336;2023-11-18T02:39:32;7.20;;;5.83;;
7027;SDS011;3555;53.248;10.336;2023-11-18T02:42:05;6.17;;;5.10;;
7027;SDS011;3555;53.248;10.336;2023-11-18T02:44:34;9.13;;;5.10;;
7027;SDS011;3555;53.248;10.336;2023-11-18T02:47:03;7.37;;;5.50;;
7027;SDS011;3555;53.248;10.336;2023-11-18T02:49:31;7.63;;;5.87;;
7027;SDS011;3555;53.248;10.336;2023-11-18T02:51:58;6.93;;;5.70;;
7027;SDS011;3555;53.248;10.336;2023-11-18T02:54:25;6.77;;;5.17;;
7027;SDS011;3555;53.248;10.336;2023-11-18T02:56:52;6.13;;;4.93;;
7027;SDS011;3555;53.248;10.336;2023-11-18T02:59:21;7.77;;;5.63;;
7027;SDS011;3555;53.248;10.336;2023-11-18T03:01:47;7.17;;;5.63;;
7027;SDS011;3555;53.248;10.336;2023-11-18T03:04:14;7.13;;;5.27;;
7027;SDS011;3555;53.248;10.336;2023-11-18T03:06:44;6.53;;;5.60;;
7027;SDS011;3555;53.248;10.336;2023-11-18T03:09:11;7.13;;;5.70;;
7027;SDS011;3555;53.248;10.336;2023-11-18T03:11:38;7.40;;;5.20;;
7027;SDS011;3555;53.248;10.336;2023-11-18T03:14:05;7.20;;;5.13;;
7027;SDS011;3555;53.248;10.336;2023-11-18T03:16:36;7.77;;;5.60;;
7027;SDS011;3555;53.248;10.336;2023-11-18T03:19:03;6.03;;;4.83;;
7027;SDS011;3555;53.248;10.336;2023-11-18T03:21:32;6.43;;;5.10;;
7027;SDS011;3555;53.248;10.336;2023-11-18T03:23:58;7.37;;;5.43;;
7027;SDS011;3555;53.248;10.336;2023-11-18T03:26:25;8.73;;;5.80;;
7027;SDS011;3555;53.248;10.336;2023-11-18T03:28:52;6.20;;;5.20;;
7027;SDS011;3555;53.248;10.336;2023-11-18T03:31:19;6.70;;;5.03;;
7027;SDS011;3555;53.248;10.336;2023-11-18T03:33:47;6.40;;;4.57;;
7027;SDS011;3555;53.248;10.336;2023-11-18T03:36:14;7.13;;;5.13;;
7027;SDS011;3555;53.248;10.336;2023-11-18T03:38:43;7.77;;;5.10;;
7027;SDS011;3555;53.248;10.336;2023-11-18T03:41:10;6.67;;;5.23;;
7027;SDS011;3555;53.248;10.336;2023-11-18T03:43:38;5.40;;;4.87;;
7027;SDS011;3555;53.248;10.336;2023-11-18T03:46:05;5.97;;;4.83;;
7027;SDS011;3555;53.248;10.336;2023-11-18T03:48:32;7.77;;;5.33;;
7027;SDS011;3555;53.248;10.336;2023-11-18T03:51:02;7.00;;;5.33;;
7027;SDS011;3555;53.248;10.336;2023-11-18T03:53:29;6.07;;;5.17;;
7027;SDS011;3555;53.248;10.336;2023-11-18T03:55:58;8.80;;;5.37;;
7027;SDS011;3555;53.248;10.336;2023-11-18T03:58:25;5.90;;;4.67;;
7027;SDS011;3555;53.248;10.336;2023-11-18T04:00:52;6.23;;;5.07;;
7027;SDS011;3555;53.248;10.336;2023-11-18T04:03:19;5.67;;;4.67;;
7027;SDS011;3555;53.248;10.336;2023-11-18T04:05:46;6.37;;;5.07;;
7027;SDS011;3555;53.248;10.336;2023-11-18T04:08:15;6.37;;;5.13;;
7027;SDS011;3555;53.248;10.336;2023-11-18T04:10:42;6.30;;;4.97;;
7027;SDS011;3555;53.248;10.336;2023-11-18T04:13:09;6.27;;;5.00;;
7027;SDS011;3555;53.248;10.336;2023-11-18T04:15:36;7.37;;;5.40;;
7027;SDS011;3555;53.248;10.336;2023-11-18T04:18:03;7.17;;;5.40;;
7027;SDS011;3555;53.248;10.336;2023-11-18T04:20:31;7.30;;;5.43;;
7027;SDS011;3555;53.248;10.336;2023-11-18T04:22:58;5.47;;;4.80;;
7027;SDS011;3555;53.248;10.336;2023-11-18T04:25:27;7.50;;;4.83;;
7027;SDS011;3555;53.248;10.336;2023-11-18T04:27:54;7.60;;;5.23;;
7027;SDS011;3555;53.248;10.336;2023-11-18T04:30:21;6.43;;;4.80;;
7027;SDS011;3555;53.248;10.336;2023-11-18T04:32:47;6.37;;;4.93;;
7027;SDS011;3555;53.248;10.336;2023-11-18T04:35:17;6.37;;;4.80;;
7027;SDS011;3555;53.248;10.336;2023-11-18T04:37:44;6.07;;;4.73;;
7027;SDS011;3555;53.248;10.336;2023-11-18T04:40:11;8.40;;;5.30;;
7027;SDS011;3555;53.248;10.336;2023-11-18T04:42:40;6.20;;;4.60;;
7027;SDS011;3555;53.248;10.336;2023-11-18T04:45:07;6.90;;;5.20;;
7027;SDS011;3555;53.248;10.336;2023-11-18T04:47:35;7.63;;;5.20;;
7027;SDS011;3555;53.248;10.336;2023-11-18T04:50:03;7.83;;;5.17;;
7027;SDS011;3555;53.248;10.336;2023-11-18T04:52:31;7.00;;;4.87;;
7027;SDS011;3555;53.248;10.336;2023-11-18T04:55:00;6.47;;;4.77;;
7027;SDS011;3555;53.248;10.336;2023-11-18T04:57:27;7.00;;;5.07;;
7027;SDS011;3555;53.248;10.336;2023-11-18T04:59:55;7.43;;;5.47;;
7027;SDS011;3555;53.248;10.336;2023-11-18T05:02:22;6.63;;;4.67;;
7027;SDS011;3555;53.248;10.336;2023-11-18T05:04:49;10.13;;;4.60;;
7027;SDS011;3555;53.248;10.336;2023-11-18T05:07:16;6.13;;;4.73;;
7027;SDS011;3555;53.248;10.336;2023-11-18T05:09:43;5.07;;;4.43;;
7027;SDS011;3555;53.248;10.336;2023-11-18T05:12:10;8.00;;;4.80;;
7027;SDS011;3555;53.248;10.336;2023-11-18T05:14:37;10.37;;;5.07;;
7027;SDS011;3555;53.248;10.336;2023-11-18T05:17:05;8.40;;;4.60;;
7027;SDS011;3555;53.248;10.336;2023-11-18T05:19:33;6.67;;;4.93;;
7027;SDS011;3555;53.248;10.336;2023-11-18T05:22:01;8.10;;;4.70;;
7027;SDS011;3555;53.248;10.336;2023-11-18T05:24:27;7.47;;;4.87;;
7027;SDS011;3555;53.248;10.336;2023-11-18T05:26:54;6.60;;;4.67;;
7027;SDS011;3555;53.248;10.336;2023-11-18T05:29:21;6.60;;;4.97;;
7027;SDS011;3555;53.248;10.336;2023-11-18T05:31:50;6.37;;;4.60;;
7027;SDS011;3555;53.248;10.336;2023-11-18T05:34:19;6.70;;;4.50;;
7027;SDS011;3555;53.248;10.336;2023-11-18T05:36:46;5.60;;;4.20;;
7027;SDS011;3555;53.248;10.336;2023-11-18T05:39:16;7.70;;;5.20;;
7027;SDS011;3555;53.248;10.336;2023-11-18T05:41:45;7.80;;;4.90;;
7027;SDS011;3555;53.248;10.336;2023-11-18T05:44:15;8.30;;;5.53;;
7027;SDS011;3555;53.248;10.336;2023-11-18T05:46:44;7.67;;;5.40;;
7027;SDS011;3555;53.248;10.336;2023-11-18T05:49:12;6.87;;;5.30;;
7027;SDS011;3555;53.248;10.336;2023-11-18T05:51:41;6.27;;;4.73;;
7027;SDS011;3555;53.248;10.336;2023-11-18T05:54:08;6.30;;;4.17;;
7027;SDS011;3555;53.248;10.336;2023-11-18T05:56:35;5.57;;;4.30;;
7027;SDS011;3555;53.248;10.336;2023-11-18T05:59:02;6.80;;;5.00;;
7027;SDS011;3555;53.248;10.336;2023-11-18T06:01:29;7.53;;;5.00;;
7027;SDS011;3555;53.248;10.336;2023-11-18T06:03:56;6.53;;;5.10;;
7027;SDS011;3555;53.248;10.336;2023-11-18T06:06:24;8.37;;;5.63;;
7027;SDS011;3555;53.248;10.336;2023-11-18T06:08:52;9.87;;;5.70;;
7027;SDS011;3555;53.248;10.336;2023-11-18T06:11:19;8.97;;;6.30;;
7027;SDS011;3555;53.248;10.336;2023-11-18T06:13:48;8.33;;;5.70;;
7027;SDS011;3555;53.248;10.336;2023-11-18T06:16:17;11.03;;;6.60;;
7027;SDS011;3555;53.248;10.336;2023-11-18T06:18:46;8.20;;;6.00;;
7027;SDS011;3555;53.248;10.336;2023-11-18T06:21:14;8.43;;;5.97;;
7027;SDS011;3555;53.248;10.336;2023-11-18T06:23:42;9.33;;;5.60;;
7027;SDS011;3555;53.248;10.336;2023-11-18T06:26:11;11.27;;;6.20;;
7027;SDS011;3555;53.248;10.336;2023-11-18T06:28:38;10.37;;;6.50;;
7027;SDS011;3555;53.248;10.336;2023-11-18T06:31:06;10.17;;;6.53;;
7027;SDS011;3555;53.248;10.336;2023-11-18T06:33:37;9.10;;;6.30;;
7027;SDS011;3555;53.248;10.336;2023-11-18T06:36:05;9.97;;;6.67;;
7027;SDS011;3555;53.248;10.336;2023-11-18T06:38:33;8.00;;;5.80;;
7027;SDS011;3555;53.248;10.336;2023-11-18T06:41:00;7.67;;;5.60;;
7027;SDS011;3555;53.248;10.336;2023-11-18T06:43:31;7.40;;;5.27;;
7027;SDS011;3555;53.248;10.336;2023-11-18T06:46:16;8.43;;;5.70;;
7027;SDS011;3555;53.248;10.336;2023-11-18T06:48:45;11.33;;;7.47;;
7027;SDS011;3555;53.248;10.336;2023-11-18T06:51:14;12.43;;;7.90;;
7027;SDS011;3555;53.248;10.336;2023-11-18T06:53:41;10.70;;;6.27;;
7027;SDS011;3555;53.248;10.336;2023-11-18T06:56:09;9.70;;;6.43;;
7027;SDS011;3555;53.248;10.336;2023-11-18T06:58:38;8.80;;;5.97;;
7027;SDS011;3555;53.248;10.336;2023-11-18T07:01:06;7.77;;;5.50;;
7027;SDS011;3555;53.248;10.336;2023-11-18T07:03:33;9.13;;;5.17;;
7027;SDS011;3555;53.248;10.336;2023-11-18T07:06:01;8.47;;;5.97;;
7027;SDS011;3555;53.248;10.336;2023-11-18T07:08:28;8.37;;;5.57;;
7027;SDS011;3555;53.248;10.336;2023-11-18T07:10:54;7.10;;;5.40;;
7027;SDS011;3555;53.248;10.336;2023-11-18T07:13:21;8.73;;;5.50;;
7027;SDS011;3555;53.248;10.336;2023-11-18T07:15:50;7.83;;;5.43;;
7027;SDS011;3555;53.248;10.336;2023-11-18T07:18:18;7.90;;;5.23;;
7027;SDS011;3555;53.248;10.336;2023-11-18T07:20:47;7.87;;;5.23;;
7027;SDS011;3555;53.248;10.336;2023-11-18T07:23:16;6.03;;;5.17;;
7027;SDS011;3555;53.248;10.336;2023-11-18T07:25:43;6.63;;;5.10;;
7027;SDS011;3555;53.248;10.336;2023-11-18T07:28:10;7.70;;;5.23;;
7027;SDS011;3555;53.248;10.336;2023-11-18T07:30:40;7.00;;;5.03;;
7027;SDS011;3555;53.248;10.336;2023-11-18T07:33:09;7.10;;;5.20;;
7027;SDS011;3555;53.248;10.336;2023-11-18T07:35:36;11.13;;;5.33;;
7027;SDS011;3555;53.248;10.336;2023-11-18T07:38:03;8.37;;;4.50;;
7027;SDS011;3555;53.248;10.336;2023-11-18T07:40:32;8.60;;;4.87;;
7027;SDS011;3555;53.248;10.336;2023-11-18T07:42:59;7.40;;;5.43;;
7027;SDS011;3555;53.248;10.336;2023-11-18T07:45:27;9.90;;;6.60;;
7027;SDS011;3555;53.248;10.336;2023-11-18T07:48:02;8.90;;;6.00;;
7027;SDS011;3555;53.248;10.336;2023-11-18T07:50:33;8.37;;;5.73;;
7027;SDS011;3555;53.248;10.336;2023-11-18T07:53:00;8.00;;;5.83;;
7027;SDS011;3555;53.248;10.336;2023-11-18T07:55:27;8.23;;;5.77;;
7027;SDS011;3555;53.248;10.336;2023-11-18T07:57:54;7.23;;;5.33;;
7027;SDS011;3555;53.248;10.336;2023-11-18T08:00:21;8.10;;;5.37;;
7027;SDS011;3555;53.248;10.336;2023-11-18T08:02:49;7.50;;;5.13;;
7027;SDS011;3555;53.248;10.336;2023-11-18T08:05:16;8.03;;;5.77;;
7027;SDS011;3555;53.248;10.336;2023-11-18T08:07:45;8.37;;;5.90;;
7027;SDS011;3555;53.248;10.336;2023-11-18T08:10:12;11.03;;;6.87;;
7027;SDS011;3555;53.248;10.336;2023-11-18T08:12:43;9.60;;;6.87;;
7027;SDS011;3555;53.248;10.336;2023-11-18T08:15:11;10.90;;;7.13;;
7027;SDS011;3555;53.248;10.336;2023-11-18T08:17:39;9.37;;;5.83;;
7027;SDS011;3555;53.248;10.336;2023-11-18T08:20:06;7.47;;;5.87;;
7027;SDS011;3555;53.248;10.336;2023-11-18T08:22:39;7.50;;;5.87;;
7027;SDS011;3555;53.248;10.336;2023-11-18T08:25:08;9.43;;;5.73;;
7027;SDS011;3555;53.248;10.336;2023-11-18T08:27:35;7.43;;;5.43;;
7027;SDS011;3555;53.248;10.336;2023-11-18T08:30:02;6.97;;;5.20;;
7027;SDS011;3555;53.248;10.336;2023-11-18T08:32:31;8.37;;;6.20;;
7027;SDS011;3555;53.248;10.336;2023-11-18T08:34:57;9.20;;;6.63;;
7027;SDS011;3555;53.248;10.336;2023-11-18T08:37:25;9.53;;;6.27;;
7027;SDS011;3555;53.248;10.336;2023-11-18T08:39:53;9.70;;;6.50;;
7027;SDS011;3555;53.248;10.336;2023-11-18T08:42:21;10.70;;;6.73;;
7027;SDS011;3555;53.248;10.336;2023-11-18T08:44:49;7.23;;;5.20;;
7027;SDS011;3555;53.248;10.336;2023-11-18T08:47:16;7.43;;;5.47;;
7027;SDS011;3555;53.248;10.336;2023-11-18T08:49:44;7.23;;;5.00;;
7027;SDS011;3555;53.248;10.336;2023-11-18T08:52:11;6.47;;;5.33;;
7027;SDS011;3555;53.248;10.336;2023-11-18T08:54:38;8.53;;;5.50;;
7027;SDS011;3555;53.248;10.336;2023-11-18T08:57:26;7.40;;;5.30;;
7027;SDS011;3555;53.248;10.336;2023-11-18T09:00:11;8.93;;;4.83;;
7027;SDS011;3555;53.248;10.336;2023-11-18T09:03:00;7.67;;;5.13;;
7027;SDS011;3555;53.248;10.336;2023-11-18T09:05:30;10.67;;;6.20;;
7027;SDS011;3555;53.248;10.336;2023-11-18T09:07:57;10.27;;;6.17;;
7027;SDS011;3555;53.248;10.336;2023-11-18T09:10:25;8.40;;;5.83;;
7027;SDS011;3555;53.248;10.336;2023-11-18T09:12:54;8.70;;;5.93;;
7027;SDS011;3555;53.248;10.336;2023-11-18T09:15:22;8.20;;;5.83;;
7027;SDS011;3555;53.248;10.336;2023-11-18T09:17:49;9.03;;;6.00;;
7027;SDS011;3555;53.248;10.336;2023-11-18T09:20:18;10.40;;;6.43;;
7027;SDS011;3555;53.248;10.336;2023-11-18T09:22:47;10.67;;;5.73;;
7027;SDS011;3555;53.248;10.336;2023-11-18T09:25:14;8.53;;;5.63;;
7027;SDS011;3555;53.248;10.336;2023-11-18T09:27:42;7.67;;;5.57;;
7027;SDS011;3555;53.248;10.336;2023-11-18T09:30:11;9.07;;;4.90;;
7027;SDS011;3555;53.248;10.336;2023-11-18T09:32:40;5.93;;;4.57;;
7027;SDS011;3555;53.248;10.336;2023-11-18T09:35:08;8.23;;;5.20;;
7027;SDS011;3555;53.248;10.336;2023-11-18T09:37:37;8.77;;;4.93;;
7027;SDS011;3555;53.248;10.336;2023-11-18T09:40:06;6.27;;;4.60;;
7027;SDS011;3555;53.248;10.336;2023-11-18T09:42:37;5.53;;;4.27;;
7027;SDS011;3555;53.248;10.336;2023-11-18T09:45:05;5.37;;;4.40;;
7027;SDS011;3555;53.248;10.336;2023-11-18T09:47:42;5.43;;;4.07;;
7027;SDS011;3555;53.248;10.336;2023-11-18T09:50:12;5.53;;;3.83;;
7027;SDS011;3555;53.248;10.336;2023-11-18T09:52:47;5.17;;;4.23;;
7027;SDS011;3555;53.248;10.336;2023-11-18T09:55:20;6.27;;;4.03;;
7027;SDS011;3555;53.248;10.336;2023-11-18T09:57:55;6.20;;;3.90;;
7027;SDS011;3555;53.248;10.336;2023-11-18T10:00:26;4.83;;;3.50;;
7027;SDS011;3555;53.248;10.336;2023-11-18T10:02:59;5.43;;;3.70;;
7027;SDS011;3555;53.248;10.336;2023-11-18T10:05:27;4.83;;;3.33;;
7027;SDS011;3555;53.248;10.336;2023-11-18T10:07:55;6.00;;;3.30;;
7027;SDS011;3555;53.248;10.336;2023-11-18T10:10:23;6.20;;;3.27;;
7027;SDS011;3555;53.248;10.336;2023-11-18T10:13:01;6.37;;;3.50;;
7027;SDS011;3555;53.248;10.336;2023-11-18T10:15:30;5.20;;;3.10;;
7027;SDS011;3555;53.248;10.336;2023-11-18T10:17:59;3.63;;;2.67;;
7027;SDS011;3555;53.248;10.336;2023-11-18T10:20:44;4.90;;;3.10;;
7027;SDS011;3555;53.248;10.336;2023-11-18T10:23:12;3.67;;;2.83;;
7027;SDS011;3555;53.248;10.336;2023-11-18T10:25:44;3.90;;;2.97;;
7027;SDS011;3555;53.248;10.336;2023-11-18T10:28:20;4.10;;;3.40;;
7027;SDS011;3555;53.248;10.336;2023-11-18T10:30:48;5.97;;;3.53;;
7027;SDS011;3555;53.248;10.336;2023-11-18T10:33:18;4.77;;;3.20;;
7027;SDS011;3555;53.248;10.336;2023-11-18T10:35:51;4.10;;;3.07;;
7027;SDS011;3555;53.248;10.336;2023-11-18T10:38:20;4.47;;;3.20;;
7027;SDS011;3555;53.248;10.336;2023-11-18T10:40:52;5.00;;;3.10;;
7027;SDS011;3555;53.248;10.336;2023-11-18T10:43:20;4.13;;;3.10;;
7027;SDS011;3555;53.248;10.336;2023-11-18T10:45:49;3.07;;;2.50;;
7027;SDS011;3555;53.248;10.336;2023-11-18T10:48:19;3.80;;;2.67;;
7027;SDS011;3555;53.248;10.336;2023-11-18T10:50:46;5.37;;;4.40;;
7027;SDS011;3555;53.248;10.336;2023-11-18T10:53:16;3.80;;;2.83;;
7027;SDS011;3555;53.248;10.336;2023-11-18T10:55:44;5.37;;;3.00;;
7027;SDS011;3555;53.248;10.336;2023-11-18T10:58:11;4.63;;;2.43;;
7027;SDS011;3555;53.248;10.336;2023-11-18T11:00:46;5.23;;;2.73;;
7027;SDS011;3555;53.248;10.336;2023-11-18T11:03:14;3.03;;;2.40;;
7027;SDS011;3555;53.248;10.336;2023-11-18T11:05:44;3.10;;;2.53;;
7027;SDS011;3555;53.248;10.336;2023-11-18T11:08:13;2.93;;;2.20;;
7027;SDS011;3555;53.248;10.336;2023-11-18T11:10:41;3.07;;;2.37;;
7027;SDS011;3555;53.248;10.336;2023-11-18T11:13:08;3.00;;;2.40;;
7027;SDS011;3555;53.248;10.336;2023-11-18T11:15:40;3.10;;;2.20;;
7027;SDS011;3555;53.248;10.336;2023-11-18T11:18:11;3.23;;;2.47;;
7027;SDS011;3555;53.248;10.336;2023-11-18T11:20:41;4.67;;;2.47;;
7027;SDS011;3555;53.248;10.336;2023-11-18T11:23:17;2.30;;;2.07;;
7027;SDS011;3555;53.248;10.336;2023-11-18T11:25:50;2.37;;;2.00;;
7027;SDS011;3555;53.248;10.336;2023-11-18T11:28:31;3.17;;;2.17;;
7027;SDS011;3555;53.248;10.336;2023-11-18T11:31:11;2.80;;;2.10;;
7027;SDS011;3555;53.248;10.336;2023-11-18T11:33:43;3.00;;;2.30;;
7027;SDS011;3555;53.248;10.336;2023-11-18T11:36:20;3.70;;;2.80;;
7027;SDS011;3555;53.248;10.336;2023-11-18T11:38:52;2.90;;;2.30;;
7027;SDS011;3555;53.248;10.336;2023-11-18T11:41:21;2.77;;;2.20;;
7027;SDS011;3555;53.248;10.336;2023-11-18T11:43:52;2.50;;;2.17;;
7027;SDS011;3555;53.248;10.336;2023-11-18T11:46:24;3.30;;;2.53;;
7027;SDS011;3555;53.248;10.336;2023-11-18T11:48:58;3.30;;;2.50;;
7027;SDS011;3555;53.248;10.336;2023-11-18T11:51:35;4.27;;;3.00;;
7027;SDS011;3555;53.248;10.336;2023-11-18T11:54:11;3.37;;;2.87;;
7027;SDS011;3555;53.248;10.336;2023-11-18T11:56:46;3.10;;;2.77;;
7027;SDS011;3555;53.248;10.336;2023-11-18T11:59:15;4.70;;;3.20;;
7027;SDS011;3555;53.248;10.336;2023-11-18T12:01:42;4.33;;;3.13;;
7027;SDS011;3555;53.248;10.336;2023-11-18T12:04:12;3.97;;;3.00;;
7027;SDS011;3555;53.248;10.336;2023-11-18T12:06:48;3.47;;;2.70;;
7027;SDS011;3555;53.248;10.336;2023-11-18T12:09:19;4.90;;;3.30;;
7027;SDS011;3555;53.248;10.336;2023-11-18T12:11:47;5.23;;;3.17;;
7027;SDS011;3555;53.248;10.336;2023-11-18T12:14:14;3.87;;;3.03;;
7027;SDS011;3555;53.248;10.336;2023-11-18T12:17:03;4.00;;;3.00;;
7027;SDS011;3555;53.248;10.336;2023-11-18T12:19:35;8.50;;;3.03;;
7027;SDS011;3555;53.248;10.336;2023-11-18T12:22:10;3.97;;;3.07;;
7027;SDS011;3555;53.248;10.336;2023-11-18T12:24:44;7.27;;;3.17;;
7027;SDS011;3555;53.248;10.336;2023-11-18T12:33:08;4.53;;;3.00;;
7027;SDS011;3555;53.248;10.336;2023-11-18T12:35:37;5.57;;;3.47;;
7027;SDS011;3555;53.248;10.336;2023-11-18T12:38:21;4.03;;;3.27;;
7027;SDS011;3555;53.248;10.336;2023-11-18T12:41:12;5.67;;;2.87;;
7027;SDS011;3555;53.248;10.336;2023-11-18T12:43:59;3.90;;;3.03;;
7027;SDS011;3555;53.248;10.336;2023-11-18T12:46:52;7.13;;;2.93;;
7027;SDS011;3555;53.248;10.336;2023-11-18T12:49:21;4.50;;;2.83;;
7027;SDS011;3555;53.248;10.336;2023-11-18T12:51:49;3.50;;;2.90;;
7027;SDS011;3555;53.248;10.336;2023-11-18T12:54:18;3.53;;;3.07;;
7027;SDS011;3555;53.248;10.336;2023-11-18T12:56:48;3.27;;;2.83;;
7027;SDS011;3555;53.248;10.336;2023-11-18T12:59:15;4.23;;;2.70;;
7027;SDS011;3555;53.248;10.336;2023-11-18T13:01:44;5.77;;;2.60;;
7027;SDS011;3555;53.248;10.336;2023-11-18T13:04:17;3.37;;;2.83;;
7027;SDS011;3555;53.248;10.336;2023-11-18T13:06:46;4.87;;;2.37;;
7027;SDS011;3555;53.248;10.336;2023-11-18T13:09:14;3.00;;;2.40;;
7027;SDS011;3555;53.248;10.336;2023-11-18T13:11:52;3.40;;;2.87;;
7027;SDS011;3555;53.248;10.336;2023-11-18T13:14:22;3.83;;;2.73;;
7027;SDS011;3555;53.248;10.336;2023-11-18T13:16:51;3.50;;;2.70;;
7027;SDS011;3555;53.248;10.336;2023-11-18T13:19:24;3.00;;;2.60;;
7027;SDS011;3555;53.248;10.336;2023-11-18T13:21:56;3.90;;;2.70;;
7027;SDS011;3555;53.248;10.336;2023-11-18T13:24:24;3.83;;;2.97;;
7027;SDS011;3555;53.248;10.336;2023-11-18T13:26:53;5.03;;;3.00;;
7027;SDS011;3555;53.248;10.336;2023-11-18T13:29:20;3.43;;;2.93;;
7027;SDS011;3555;53.248;10.336;2023-11-18T13:31:48;5.93;;;3.50;;
7027;SDS011;3555;53.248;10.336;2023-11-18T13:34:16;4.93;;;3.93;;
7027;SDS011;3555;53.248;10.336;2023-11-18T13:36:43;6.67;;;4.00;;
7027;SDS011;3555;53.248;10.336;2023-11-18T13:39:15;5.77;;;3.90;;
7027;SDS011;3555;53.248;10.336;2023-11-18T13:41:43;6.63;;;4.67;;
7027;SDS011;3555;53.248;10.336;2023-11-18T13:44:12;7.87;;;5.47;;
7027;SDS011;3555;53.248;10.336;2023-11-18T13:46:39;7.77;;;4.90;;
7027;SDS011;3555;53.248;10.336;2023-11-18T13:49:08;7.70;;;4.77;;
7027;SDS011;3555;53.248;10.336;2023-11-18T13:51:35;7.73;;;4.67;;
7027;SDS011;3555;53.248;10.336;2023-11-18T13:54:02;6.30;;;4.50;;
7027;SDS011;3555;53.248;10.336;2023-11-18T13:56:30;6.53;;;4.47;;
7027;SDS011;3555;53.248;10.336;2023-11-18T13:58:57;5.83;;;4.10;;
7027;SDS011;3555;53.248;10.336;2023-11-18T14:01:26;6.93;;;4.20;;
7027;SDS011;3555;53.248;10.336;2023-11-18T14:03:54;7.13;;;3.60;;
7027;SDS011;3555;53.248;10.336;2023-11-18T14:06:26;8.07;;;3.90;;
7027;SDS011;3555;53.248;10.336;2023-11-18T14:08:55;5.80;;;3.00;;
7027;SDS011;3555;53.248;10.336;2023-11-18T14:11:21;3.50;;;3.07;;
7027;SDS011;3555;53.248;10.336;2023-11-18T14:13:49;3.47;;;2.73;;
7027;SDS011;3555;53.248;10.336;2023-11-18T14:16:18;3.40;;;2.83;;
7027;SDS011;3555;53.248;10.336;2023-11-18T14:18:47;2.87;;;2.57;;
7027;SDS011;3555;53.248;10.336;2023-11-18T14:21:14;4.77;;;2.77;;
7027;SDS011;3555;53.248;10.336;2023-11-18T14:23:41;2.83;;;2.43;;
7027;SDS011;3555;53.248;10.336;2023-11-18T14:26:08;4.17;;;2.47;;
7027;SDS011;3555;53.248;10.336;2023-11-18T14:28:35;3.03;;;2.40;;
7027;SDS011;3555;53.248;10.336;2023-11-18T14:31:03;3.00;;;2.40;;
7027;SDS011;3555;53.248;10.336;2023-11-18T14:33:32;4.23;;;2.30;;
7027;SDS011;3555;53.248;10.336;2023-11-18T14:36:01;3.33;;;2.03;;
7027;SDS011;3555;53.248;10.336;2023-11-18T14:38:30;2.50;;;2.17;;
7027;SDS011;3555;53.248;10.336;2023-11-18T14:40:57;2.40;;;2.10;;
7027;SDS011;3555;53.248;10.336;2023-11-18T14:43:24;3.10;;;2.50;;
7027;SDS011;3555;53.248;10.336;2023-11-18T14:45:51;3.70;;;3.10;;
7027;SDS011;3555;53.248;10.336;2023-11-18T14:48:18;5.67;;;2.90;;
7027;SDS011;3555;53.248;10.336;2023-11-18T14:50:45;3.90;;;3.10;;
7027;SDS011;3555;53.248;10.336;2023-11-18T14:53:13;5.40;;;3.70;;
7027;SDS011;3555;53.248;10.336;2023-11-18T14:55:40;4.57;;;3.30;;
7027;SDS011;3555;53.248;10.336;2023-11-18T14:58:08;4.90;;;3.60;;
7027;SDS011;3555;53.248;10.336;2023-11-18T15:00:37;4.10;;;3.33;;
7027;SDS011;3555;53.248;10.336;2023-11-18T15:03:04;4.23;;;3.33;;
7027;SDS011;3555;53.248;10.336;2023-11-18T15:05:32;5.07;;;3.80;;
7027;SDS011;3555;53.248;10.336;2023-11-18T15:07:59;5.33;;;3.90;;
7027;SDS011;3555;53.248;10.336;2023-11-18T15:10:28;4.27;;;3.27;;
7027;SDS011;3555;53.248;10.336;2023-11-18T15:12:55;5.00;;;3.90;;
7027;SDS011;3555;53.248;10.336;2023-11-18T15:15:26;6.53;;;3.67;;
7027;SDS011;3555;53.248;10.336;2023-11-18T15:17:57;6.13;;;3.47;;